Time;durP1;ratioP1;P1;durP2;ratioP2;P2;SDS_P1;SDS_P2;PMS_P1;PMS_P2;Temp;Humidity;BMP_temperature;BMP_pressure;BME280_temperature;BME280_humidity;BME280_pressure;Samples;Min_cycle;Max_cycle;Signal;HPM_P1;HPM_P2
2022/08/23 00:01:29;;;;;;;6.90;3.70;;;;;;;15.75;86.49;98878.75;105720;1279;24423;-74
2022/08/23 00:04:03;;;;;;;7.40;3.90;;;;;;;15.77;86.36;98881.74;106667;1279;23283;-75
2022/08/23 00:06:31;;;;;;;8.30;3.50;;;;;;;15.76;86.11;98874.23;105735;1280;24270;-79
2022/08/23 00:08:58;;;;;;;6.70;3.60;;;;;;;15.72;86.18;98868.29;105847;1279;22779;-74
2022/08/23 00:11:42;;;;;;;8.10;3.70;;;;;;;15.72;86.32;98869.02;105664;1279;22901;-74
2022/08/23 00:14:31;;;;;;;8.70;4.20;;;;;;;15.72;86.20;98866.48;106021;1279;22758;-77
2022/08/23 00:16:59;;;;;;;9.30;4.30;;;;;;;15.79;86.65;98868.48;105718;1279;25318;-76
2022/08/23 00:19:26;;;;;;;8.10;3.50;;;;;;;15.80;86.25;98866.27;105674;1281;25302;-76
2022/08/23 00:21:54;;;;;;;10.10;5.20;;;;;;;15.76;86.15;98862.67;104615;1280;1474012;-76
2022/08/23 00:24:24;;;;;;;14.80;5.80;;;;;;;15.71;86.06;98861.56;105777;1281;25373;-75
2022/08/23 00:26:53;;;;;;;10.90;5.80;;;;;;;15.65;86.06;98856.52;105582;1282;22562;-81
2022/08/23 00:29:23;;;;;;;13.30;6.90;;;;;;;15.60;86.21;98856.31;105679;1279;25292;-75
2022/08/23 00:31:50;;;;;;;14.70;7.40;;;;;;;15.59;86.38;98856.43;105493;1280;22575;-77
2022/08/23 00:34:20;;;;;;;14.80;7.60;;;;;;;15.60;86.35;98855.44;105590;1282;22558;-81
2022/08/23 00:36:48;;;;;;;14.60;7.50;;;;;;;15.60;86.45;98856.79;105623;1281;22575;-79
2022/08/23 00:39:17;;;;;;;12.50;7.40;;;;;;;15.62;86.49;98862.95;105680;1281;24331;-75
2022/08/23 00:41:45;;;;;;;13.50;7.70;;;;;;;15.63;86.53;98863.40;105785;1278;24293;-79
2022/08/23 00:50:10;;;;;;;17.30;8.90;;;;;;;15.63;86.53;98856.07;105709;1279;24221;-81
2022/08/23 00:52:46;;;;;;;13.90;8.50;;;;;;;15.62;86.49;98858.09;106016;1279;22591;-76
2022/08/23 00:55:21;;;;;;;12.50;6.60;;;;;;;15.61;86.54;98858.55;105730;1278;22821;-79
2022/08/23 00:57:48;;;;;;;16.10;9.10;;;;;;;15.59;86.47;98853.67;105647;1278;24293;-81
2022/08/23 01:00:16;;;;;;;14.80;7.60;;;;;;;15.58;86.52;98854.89;105718;1279;23202;-81
2022/08/23 01:02:45;;;;;;;15.30;9.70;;;;;;;15.57;86.60;98846.88;106126;1277;25372;-75
2022/08/23 01:05:13;;;;;;;18.00;10.40;;;;;;;15.58;86.71;98845.04;105708;1277;22701;-76
2022/08/23 01:07:50;;;;;;;14.80;8.90;;;;;;;15.61;86.79;98846.16;105720;1279;22566;-76
2022/08/23 01:10:42;;;;;;;18.20;10.90;;;;;;;15.63;86.73;98839.92;106109;1277;22724;-82
2022/08/23 01:13:20;;;;;;;14.30;8.90;;;;;;;15.63;86.87;98837.56;105614;1279;24275;-80
2022/08/23 01:15:55;;;;;;;17.00;10.90;;;;;;;15.64;86.79;98830.64;105798;1277;25346;-76
2022/08/23 01:18:26;;;;;;;16.00;10.40;;;;;;;15.64;86.86;98829.88;106073;1277;25366;-76
2022/08/23 01:21:20;;;;;;;14.10;9.20;;;;;;;15.66;86.87;98830.96;105704;1279;24191;-77
2022/08/23 01:23:56;;;;;;;14.10;9.30;;;;;;;15.66;86.84;98831.56;105646;1279;22548;-82
2022/08/23 01:26:25;;;;;;;13.80;8.80;;;;;;;15.67;86.80;98831.64;105727;1282;22544;-80
2022/08/23 01:28:53;;;;;;;17.10;9.50;;;;;;;15.68;86.94;98835.45;106130;1277;22570;-82
2022/08/23 01:31:22;;;;;;;14.60;9.30;;;;;;;15.68;86.84;98838.69;105700;1277;25608;-75
2022/08/23 01:33:55;;;;;;;17.30;9.80;;;;;;;15.66;86.88;98838.10;105787;1279;25205;-76
2022/08/23 01:36:23;;;;;;;16.00;9.80;;;;;;;15.67;87.02;98835.69;105714;1279;24202;-79
2022/08/23 01:38:56;;;;;;;12.20;7.60;;;;;;;15.72;87.06;98837.85;106189;1277;22560;-76
2022/08/23 01:41:23;;;;;;;14.40;9.90;;;;;;;15.73;86.93;98838.92;106066;1277;22564;-76
2022/08/23 01:43:50;;;;;;;15.40;9.20;;;;;;;15.74;86.94;98842.73;105729;1277;25339;-77
2022/08/23 01:46:21;;;;;;;14.90;9.10;;;;;;;15.79;87.13;98843.03;105822;1277;22948;-76
2022/08/23 01:48:50;;;;;;;13.90;9.20;;;;;;;15.82;87.02;98841.65;105758;1279;22531;-80
2022/08/23 01:51:19;;;;;;;15.90;10.30;;;;;;;15.84;86.95;98841.61;106017;1277;22632;-80
2022/08/23 01:53:46;;;;;;;14.10;9.60;;;;;;;15.86;87.06;98842.66;105906;1278;22561;-81
2022/08/23 01:56:18;;;;;;;13.70;9.60;;;;;;;15.90;87.09;98846.27;105788;1277;22705;-79
2022/08/23 01:58:47;;;;;;;14.80;9.80;;;;;;;15.92;87.01;98849.63;105656;1279;22579;-79
2022/08/23 02:01:16;;;;;;;14.80;8.80;;;;;;;15.94;87.00;98852.08;105631;1281;25378;-75
2022/08/23 02:03:44;;;;;;;15.20;9.30;;;;;;;15.98;87.11;98860.36;105845;1278;23930;-75
2022/08/23 02:06:12;;;;;;;15.40;8.90;;;;;;;15.98;86.85;98865.98;105747;1279;25240;-75
2022/08/23 02:11:29;;;;;;;13.20;8.60;;;;;;;15.98;86.99;98865.11;105760;1279;22569;-76
2022/08/23 02:13:58;;;;;;;12.90;8.40;;;;;;;15.96;86.83;98864.71;105700;1278;25365;-77
2022/08/23 02:16:32;;;;;;;13.50;8.90;;;;;;;15.97;87.04;98864.94;105623;1281;22577;-82
2022/08/23 02:19:01;;;;;;;11.40;7.70;;;;;;;16.00;87.11;98864.84;105809;1277;22567;-76
2022/08/23 02:21:30;;;;;;;13.00;8.00;;;;;;;16.03;87.05;98867.95;105698;1279;23930;-76
2022/08/23 02:23:58;;;;;;;13.00;8.20;;;;;;;16.06;87.13;98868.55;105667;1280;22888;-81
2022/08/23 02:26:25;;;;;;;11.00;7.40;;;;;;;16.05;86.87;98871.67;105734;1279;22551;-78
2022/08/23 02:28:52;;;;;;;10.30;6.80;;;;;;;16.04;86.95;98873.27;105676;1280;22561;-78
2022/08/23 02:31:20;;;;;;;11.50;7.40;;;;;;;16.06;87.00;98872.86;105724;1279;22543;-75
2022/08/23 02:33:48;;;;;;;10.50;6.20;;;;;;;16.07;87.02;98871.12;105960;1279;22560;-80
2022/08/23 02:36:16;;;;;;;14.30;7.10;;;;;;;16.08;86.93;98873.78;105717;1279;22724;-78
2022/08/23 02:38:43;;;;;;;9.20;6.40;;;;;;;16.10;87.08;98872.33;105693;1281;22642;-81
2022/08/23 02:41:10;;;;;;;15.50;6.20;;;;;;;16.13;87.15;98873.08;105735;1279;22712;-76
2022/08/23 02:43:37;;;;;;;9.50;5.70;;;;;;;16.16;87.02;98877.26;105830;1278;25307;-76
2022/08/23 02:46:07;;;;;;;8.90;5.50;;;;;;;16.15;87.03;98882.75;105559;1281;22563;-77
2022/08/23 02:48:36;;;;;;;8.30;5.50;;;;;;;16.13;86.87;98883.45;105898;1278;22561;-81
2022/08/23 02:51:07;;;;;;;9.00;5.20;;;;;;;16.11;86.83;98884.02;105749;1279;22567;-79
2022/08/23 02:53:35;;;;;;;8.80;4.30;;;;;;;16.07;86.80;98876.36;105766;1277;24241;-75
2022/08/23 02:56:05;;;;;;;9.20;4.00;;;;;;;16.03;86.71;98866.56;105705;1278;21786;-82
2022/08/23 02:58:32;;;;;;;7.60;3.60;;;;;;;16.00;86.94;98865.40;106028;1278;25247;-77
2022/08/23 03:01:00;;;;;;;6.70;3.20;;;;;;;16.02;87.12;98869.47;105780;1277;22556;-75
2022/08/23 03:03:27;;;;;;;5.70;2.70;;;;;;;16.04;87.14;98871.10;105653;1279;25293;-76
2022/08/23 03:05:54;;;;;;;5.80;2.80;;;;;;;16.03;87.01;98864.88;105624;1281;22619;-78
2022/08/23 03:08:23;;;;;;;4.50;2.10;;;;;;;16.01;87.05;98862.39;105979;1278;22543;-77
2022/08/23 03:10:51;;;;;;;5.70;2.80;;;;;;;16.04;87.14;98870.04;105660;1280;22607;-75
2022/08/23 03:13:19;;;;;;;4.60;2.10;;;;;;;16.07;87.35;98868.80;106004;1278;24276;-82
2022/08/23 03:15:48;;;;;;;6.60;2.60;;;;;;;16.10;87.12;98871.94;105806;1277;23023;-78
2022/08/23 03:18:16;;;;;;;6.20;2.50;;;;;;;16.09;87.15;98869.52;105647;1278;22625;-82
2022/08/23 03:20:43;;;;;;;5.00;1.90;;;;;;;16.10;87.13;98864.82;105672;1279;25269;-78
2022/08/23 03:23:11;;;;;;;4.60;2.10;;;;;;;16.05;86.88;98853.39;105853;1278;25322;-77
2022/08/23 03:25:39;;;;;;;5.90;2.00;;;;;;;16.00;86.92;98848.37;105757;1278;25537;-78
2022/08/23 03:28:28;;;;;;;5.00;1.90;;;;;;;15.97;87.09;98855.08;105803;1279;25295;-76
2022/08/23 03:30:56;;;;;;;5.00;2.00;;;;;;;16.02;87.53;98861.13;105703;1279;22587;-79
2022/08/23 03:33:23;;;;;;;5.90;2.50;;;;;;;16.08;87.40;98858.36;105719;1279;25318;-75
2022/08/23 03:35:50;;;;;;;5.50;2.60;;;;;;;16.07;87.04;98862.02;105702;1278;22524;-76
2022/08/23 03:38:18;;;;;;;6.20;2.80;;;;;;;16.03;87.14;98867.58;105974;1280;22541;-79
2022/08/23 03:40:46;;;;;;;5.20;2.30;;;;;;;16.03;87.13;98870.10;105822;1278;22569;-83
2022/08/23 03:43:13;;;;;;;6.70;3.30;;;;;;;16.01;87.08;98874.10;105935;1280;24211;-79
2022/08/23 03:45:40;;;;;;;5.90;3.20;;;;;;;16.04;87.32;98877.23;105647;1279;25459;-76
2022/08/23 03:48:07;;;;;;;7.40;3.80;;;;;;;16.06;87.21;98875.02;105856;1278;21807;-83
2022/08/23 03:50:34;;;;;;;7.70;4.20;;;;;;;16.08;87.29;98871.25;105911;1277;22734;-79
2022/08/23 03:53:05;;;;;;;7.40;4.20;;;;;;;16.11;87.37;98866.96;105641;1279;24358;-76
2022/08/23 03:55:32;;;;;;;7.60;4.20;;;;;;;16.10;87.14;98863.31;105615;1279;22582;-81
2022/08/23 03:57:59;;;;;;;7.70;4.30;;;;;;;16.06;86.86;98863.39;105712;1282;25519;-77
2022/08/23 04:00:26;;;;;;;7.70;4.10;;;;;;;16.01;86.97;98862.79;105597;1278;22549;-80
2022/08/23 04:02:53;;;;;;;7.10;3.80;;;;;;;16.00;87.15;98862.34;105795;1275;24685;-82
2022/08/23 04:05:21;;;;;;;7.10;3.80;;;;;;;15.99;87.12;98861.70;105709;1279;25285;-77
2022/08/23 04:07:50;;;;;;;9.20;4.30;;;;;;;15.98;87.27;98860.77;105752;1280;22687;-78
2022/08/23 04:10:20;;;;;;;6.90;3.60;;;;;;;16.03;87.56;98861.91;105545;1278;22700;-77
2022/08/23 04:12:48;;;;;;;6.50;3.70;;;;;;;16.09;87.54;98865.02;106309;1277;22558;-76
2022/08/23 04:15:17;;;;;;;5.70;3.30;;;;;;;16.14;87.55;98863.42;105714;1278;25249;-76
2022/08/23 04:17:44;;;;;;;6.40;3.30;;;;;;;16.17;87.37;98870.17;105453;1281;22601;-77
2022/08/23 04:20:11;;;;;;;7.10;3.60;;;;;;;16.14;87.06;98867.92;106089;1277;22644;-76
2022/08/23 04:22:51;;;;;;;6.10;3.20;;;;;;;16.15;87.41;98872.39;105607;1281;22573;-83
2022/08/23 04:25:21;;;;;;;5.90;3.10;;;;;;;16.17;87.29;98876.84;105668;1279;22556;-76
2022/08/23 04:27:48;;;;;;;5.70;2.80;;;;;;;16.20;87.44;98877.95;105954;1280;24360;-82
2022/08/23 04:30:18;;;;;;;6.20;2.80;;;;;;;16.24;87.36;98877.24;105879;1281;22627;-82
2022/08/23 04:32:46;;;;;;;7.20;3.00;;;;;;;16.27;87.32;98879.64;105797;1278;22632;-82
2022/08/23 04:35:14;;;;;;;6.20;3.10;;;;;;;16.27;87.14;98880.16;105826;1277;22617;-76
2022/08/23 04:37:41;;;;;;;7.30;3.20;;;;;;;16.25;87.24;98880.49;106269;1277;22566;-76
2022/08/23 04:42:56;;;;;;;6.00;3.00;;;;;;;16.29;87.25;98884.05;106035;1277;22619;-80
2022/08/23 04:45:25;;;;;;;7.30;3.80;;;;;;;16.26;87.05;98885.08;105712;1279;24221;-79
2022/08/23 04:47:53;;;;;;;8.00;3.80;;;;;;;16.22;87.15;98882.06;105762;1278;25211;-76
2022/08/23 04:50:20;;;;;;;7.00;3.60;;;;;;;16.25;87.39;98882.34;105773;1278;23193;-77
2022/08/23 04:53:07;;;;;;;6.40;3.80;;;;;;;16.28;87.41;98887.77;105738;1278;24070;-76
2022/08/23 04:55:37;;;;;;;6.60;3.90;;;;;;;16.32;87.49;98891.45;105781;1278;22056;-82
2022/08/23 04:58:06;;;;;;;7.20;4.00;;;;;;;16.34;87.32;98893.79;106027;1279;24415;-79
2022/08/23 05:00:39;;;;;;;6.80;3.20;;;;;;;16.35;87.42;98898.39;105650;1279;25351;-78
2022/08/23 05:03:08;;;;;;;6.70;3.60;;;;;;;16.38;87.28;98895.20;105569;1277;24718;-76
2022/08/23 05:05:37;;;;;;;7.70;3.50;;;;;;;16.31;86.96;98893.42;105814;1278;22560;-80
2022/08/23 05:08:04;;;;;;;7.00;3.80;;;;;;;16.26;87.20;98891.52;106113;1277;23008;-78
2022/08/23 05:10:31;;;;;;;7.60;4.30;;;;;;;16.26;87.24;98896.80;105663;1277;24451;-79
2022/08/23 05:13:02;;;;;;;7.90;4.80;;;;;;;16.29;87.51;98896.45;105978;1279;25247;-74
2022/08/23 05:15:28;;;;;;;8.20;5.00;;;;;;;16.32;87.29;98895.99;105668;1279;26842;-81
2022/08/23 05:18:02;;;;;;;9.30;5.20;;;;;;;16.30;87.19;98895.01;105990;1278;22543;-79
2022/08/23 05:20:30;;;;;;;8.30;5.10;;;;;;;16.29;87.21;98896.14;105781;1278;22610;-83
2022/08/23 05:22:59;;;;;;;8.20;5.20;;;;;;;16.28;87.25;98894.77;105743;1277;22890;-82
2022/08/23 05:25:49;;;;;;;7.60;5.00;;;;;;;16.29;87.25;98890.39;105673;1279;26571;-76
2022/08/23 05:28:28;;;;;;;9.70;5.10;;;;;;;16.29;87.34;98891.43;105832;1278;22543;-82
2022/08/23 05:30:58;;;;;;;8.10;4.60;;;;;;;16.30;87.23;98892.27;105711;1280;22564;-81
2022/08/23 05:33:26;;;;;;;7.50;4.60;;;;;;;16.32;87.35;98889.87;105872;1277;25322;-77
2022/08/23 05:35:54;;;;;;;8.20;4.40;;;;;;;16.35;87.36;98897.65;105832;1279;25440;-79
2022/08/23 05:38:21;;;;;;;7.30;3.50;;;;;;;16.36;87.29;98898.70;105851;1279;24214;-76
2022/08/23 05:40:54;;;;;;;7.50;4.30;;;;;;;16.36;87.13;98896.13;105641;1280;25343;-77
2022/08/23 05:43:23;;;;;;;4.90;2.60;;;;;;;16.36;87.31;98896.47;105547;1282;22766;-82
2022/08/23 05:46:12;;;;;;;7.90;4.10;;;;;;;16.35;87.11;98898.93;105722;1277;25391;-76
2022/08/23 05:48:42;;;;;;;6.60;3.70;;;;;;;16.32;87.19;98898.49;105799;1278;22775;-77
2022/08/23 05:51:12;;;;;;;7.90;4.50;;;;;;;16.35;87.37;98906.15;105698;1280;23930;-80
2022/08/23 05:53:40;;;;;;;8.20;4.30;;;;;;;16.35;87.28;98906.31;105803;1278;24267;-82
2022/08/23 05:56:12;;;;;;;8.40;4.30;;;;;;;16.35;87.42;98912.56;105726;1279;22650;-83
2022/08/23 05:58:41;;;;;;;8.40;4.60;;;;;;;16.41;87.58;98917.40;106006;1279;24249;-77
2022/08/23 06:01:09;;;;;;;7.60;4.30;;;;;;;16.44;87.52;98930.14;105756;1278;25390;-75
2022/08/23 06:03:36;;;;;;;8.40;4.80;;;;;;;16.46;87.50;98931.39;105663;1279;22907;-82
2022/08/23 06:06:04;;;;;;;8.20;5.00;;;;;;;16.54;87.76;98940.78;105640;1278;25217;-82
2022/08/23 06:08:31;;;;;;;7.70;4.60;;;;;;;16.59;87.68;98949.23;106041;1279;25520;-77
2022/08/23 06:11:04;;;;;;;7.70;4.90;;;;;;;16.60;87.54;98947.88;106002;1278;25247;-76
2022/08/23 06:13:42;;;;;;;9.20;5.00;;;;;;;16.61;87.69;98946.87;106086;1277;24067;-76
2022/08/23 06:16:12;;;;;;;8.60;5.00;;;;;;;16.63;87.51;98948.64;105701;1280;23048;-77
2022/08/23 06:18:39;;;;;;;7.70;4.60;;;;;;;16.63;87.65;98952.02;105662;1281;22731;-83
2022/08/23 06:21:24;;;;;;;9.70;4.70;;;;;;;16.65;87.48;98952.60;105796;1279;24372;-79
2022/08/23 06:23:52;;;;;;;7.90;4.60;;;;;;;16.66;87.67;98958.55;105647;1281;22604;-79
2022/08/23 06:26:30;;;;;;;8.80;4.80;;;;;;;16.71;87.71;98957.74;105963;1281;22533;-80
2022/08/23 06:28:59;;;;;;;7.20;4.60;;;;;;;16.72;87.36;98960.90;105641;1281;22576;-82
2022/08/23 06:31:46;;;;;;;8.70;4.70;;;;;;;16.70;87.27;98962.50;105827;1279;24310;-77
2022/08/23 06:34:23;;;;;;;9.20;4.80;;;;;;;16.75;87.77;98966.89;105759;1278;24221;-82
2022/08/23 06:37:06;;;;;;;8.00;4.60;;;;;;;16.84;87.78;98968.34;105962;1279;22924;-76
2022/08/23 06:39:57;;;;;;;7.90;4.40;;;;;;;16.88;87.62;98969.73;105883;1279;22534;-81
2022/08/23 06:42:41;;;;;;;8.00;4.60;;;;;;;16.94;87.82;98973.95;105684;1279;23958;-76
2022/08/23 06:45:09;;;;;;;8.30;4.40;;;;;;;16.97;87.45;98974.18;105652;1277;22567;-76
2022/08/23 06:47:39;;;;;;;7.80;4.40;;;;;;;17.00;87.77;98971.07;105537;1277;22550;-78
2022/08/23 06:50:08;;;;;;;8.30;4.60;;;;;;;17.05;87.62;98973.96;105752;1278;26555;-78
2022/08/23 06:53:11;;;;;;;8.60;4.50;;;;;;;17.01;87.17;98965.50;104852;1286;22863;-77
2022/08/23 06:55:58;;;;;;;6.80;3.70;;;;;;;16.90;87.02;98959.25;105561;1279;22547;-78
2022/08/23 06:58:36;;;;;;;9.10;4.20;;;;;;;16.82;87.09;98947.46;105850;1278;22629;-77
2022/08/23 07:01:45;;;;;;;7.40;3.40;;;;;;;16.80;87.40;98941.39;105417;1281;24251;-76
2022/08/23 07:04:34;;;;;;;7.00;3.60;;;;;;;16.82;87.46;98953.13;105714;1279;23558;-76
2022/08/23 07:07:10;;;;;;;5.40;2.60;;;;;;;16.84;87.39;98952.87;105871;1279;25318;-75
2022/08/23 07:09:38;;;;;;;6.70;2.60;;;;;;;16.87;87.58;98955.95;105742;1278;22690;-82
2022/08/23 07:12:05;;;;;;;6.00;2.90;;;;;;;16.98;87.86;98957.20;106203;1278;25319;-76
2022/08/23 07:14:32;;;;;;;5.60;2.60;;;;;;;17.10;88.03;98957.25;105396;1280;22545;-80
2022/08/23 07:17:02;;;;;;;5.40;2.80;;;;;;;17.27;88.34;98958.98;105687;1277;25296;-77
2022/08/23 07:19:32;;;;;;;5.00;2.40;;;;;;;17.46;88.37;98960.30;105478;1278;25353;-76
2022/08/23 07:22:00;;;;;;;5.20;2.50;;;;;;;17.62;88.01;98966.05;105747;1279;24253;-82
2022/08/23 07:24:28;;;;;;;5.90;2.90;;;;;;;17.68;87.61;98970.59;105704;1279;24070;-75
2022/08/23 07:26:55;;;;;;;5.40;2.80;;;;;;;17.79;87.58;98969.11;105670;1279;22588;-82
2022/08/23 07:29:23;;;;;;;4.80;2.50;;;;;;;17.78;87.23;98967.24;105881;1278;23919;-79
2022/08/23 07:31:53;;;;;;;6.50;3.40;;;;;;;17.87;87.72;98970.17;106010;1280;23142;-77
2022/08/23 07:34:21;;;;;;;5.20;2.50;;;;;;;17.94;87.70;98970.42;105750;1280;25424;-76
2022/08/23 07:36:50;;;;;;;4.80;2.20;;;;;;;17.98;86.99;98976.32;106217;1279;24241;-78
2022/08/23 07:39:19;;;;;;;5.80;2.70;;;;;;;17.89;86.65;98977.25;105722;1278;25252;-82
2022/08/23 07:41:46;;;;;;;4.10;1.70;;;;;;;17.95;87.10;98976.31;106067;1279;22626;-78
2022/08/23 07:44:14;;;;;;;4.90;2.40;;;;;;;17.96;86.56;98977.15;105645;1279;22610;-79
2022/08/23 07:46:44;;;;;;;4.60;2.10;;;;;;;17.89;86.55;98978.20;105514;1279;26638;-76
2022/08/23 07:49:12;;;;;;;3.20;1.80;;;;;;;17.80;86.36;98984.38;105836;1281;25332;-78
2022/08/23 07:51:49;;;;;;;4.10;2.10;;;;;;;17.74;86.57;98985.34;105615;1279;23710;-76
2022/08/23 07:54:20;;;;;;;4.00;2.10;;;;;;;17.75;86.88;98983.09;105802;1279;22557;-82
2022/08/23 07:57:01;;;;;;;4.40;2.10;;;;;;;17.82;87.42;98984.27;105719;1279;26171;-77
2022/08/23 07:59:51;;;;;;;4.90;2.20;;;;;;;17.90;87.12;98981.38;105247;1279;25216;-76
2022/08/23 08:02:37;;;;;;;4.10;1.90;;;;;;;17.91;87.28;98984.61;106186;1279;25243;-77
2022/08/23 08:05:06;;;;;;;4.60;2.20;;;;;;;17.91;86.75;98982.48;106112;1279;24217;-79
2022/08/23 08:07:33;;;;;;;4.70;2.10;;;;;;;17.87;86.99;98986.54;105693;1279;23047;-77
2022/08/23 08:10:01;;;;;;;5.70;2.70;;;;;;;17.92;87.11;98977.54;105865;1279;22563;-82
2022/08/23 08:12:31;;;;;;;5.70;2.20;;;;;;;17.99;87.15;98976.90;105640;1279;22566;-76
2022/08/23 08:15:01;;;;;;;4.60;2.30;;;;;;;18.03;86.87;98977.41;105792;1279;24225;-75
2022/08/23 08:17:34;;;;;;;6.30;2.00;;;;;;;18.03;86.90;98977.06;105652;1281;23914;-76
2022/08/23 08:20:14;;;;;;;5.20;2.30;;;;;;;18.02;86.63;98984.08;105573;1281;22609;-79
2022/08/23 08:22:46;;;;;;;5.80;2.90;;;;;;;18.01;87.02;98988.84;105861;1279;25368;-75
2022/08/23 08:26:04;;;;;;;5.30;2.80;;;;;;;18.11;87.59;98992.30;106067;1279;25320;-76
2022/08/23 08:28:33;;;;;;;4.50;2.10;;;;;;;18.17;87.50;98997.20;105584;1278;22577;-79
2022/08/23 08:31:01;;;;;;;6.30;2.60;;;;;;;18.17;87.18;98997.58;105901;1279;24484;-77
2022/08/23 08:33:31;;;;;;;6.90;3.60;;;;;;;18.21;87.27;98997.73;105982;1281;24358;-75
2022/08/23 08:35:59;;;;;;;6.70;3.40;;;;;;;18.33;87.32;98995.77;105961;1279;22572;-77
2022/08/23 08:38:26;;;;;;;5.90;2.60;;;;;;;18.41;86.89;99000.69;105374;1281;24425;-76
2022/08/23 08:41:19;;;;;;;6.60;3.30;;;;;;;18.41;86.54;99005.34;105960;1281;25600;-76
2022/08/23 08:43:52;;;;;;;5.10;2.50;;;;;;;18.37;86.77;99012.21;105700;1279;24254;-78
2022/08/23 08:46:44;;;;;;;7.80;3.20;;;;;;;18.45;87.23;99015.95;105801;1277;22544;-78
2022/08/23 08:49:31;;;;;;;6.40;2.60;;;;;;;18.50;86.84;99018.81;105735;1278;22562;-82
2022/08/23 08:52:21;;;;;;;6.30;3.00;;;;;;;18.43;86.68;99020.86;106262;1279;22709;-79
2022/08/23 08:54:54;;;;;;;4.70;2.40;;;;;;;18.39;86.50;99023.55;106106;1277;25243;-77
2022/08/23 08:57:24;;;;;;;5.60;3.00;;;;;;;18.24;86.43;99020.96;105421;1278;23147;-77
2022/08/23 09:00:00;;;;;;;5.90;2.70;;;;;;;18.14;86.74;99024.48;105932;1279;25525;-77
2022/08/23 09:02:34;;;;;;;4.90;2.60;;;;;;;18.15;87.43;99031.52;105694;1277;22540;-76
2022/08/23 09:05:17;;;;;;;4.20;2.00;;;;;;;18.19;87.68;99039.58;105767;1278;22626;-78
2022/08/23 09:08:15;;;;;;;6.20;2.20;;;;;;;18.19;87.24;99041.95;105861;1278;22569;-77
2022/08/23 09:11:06;;;;;;;6.10;2.80;;;;;;;18.18;87.56;99047.98;105941;1279;23954;-76
2022/08/23 09:13:59;;;;;;;5.30;2.20;;;;;;;18.20;87.44;99048.52;105748;1279;22541;-81
2022/08/23 09:17:18;;;;;;;4.40;2.20;;;;;;;18.18;87.81;99054.77;106319;1276;25249;-77
2022/08/23 09:21:01;;;;;;;5.30;2.50;;;;;;;18.17;87.01;99050.65;106452;1277;25226;-76
2022/08/23 09:23:37;;;;;;;4.30;1.90;;;;;;;17.98;86.81;99052.38;105281;1285;22620;-77
2022/08/23 09:26:18;;;;;;;4.50;2.40;;;;;;;17.93;87.05;99054.70;104902;1286;23713;-78
2022/08/23 09:29:00;;;;;;;4.60;2.10;;;;;;;17.91;87.11;99053.98;105084;1285;24320;-78
2022/08/23 09:31:52;;;;;;;5.30;2.20;;;;;;;17.94;87.19;99051.71;105353;1285;22538;-75
2022/08/23 09:34:38;;;;;;;3.60;1.60;;;;;;;18.00;87.56;99053.79;105430;1284;25455;-77
2022/08/23 09:37:22;;;;;;;3.00;1.40;;;;;;;18.04;87.04;99049.96;104872;1285;22554;-78
2022/08/23 09:39:52;;;;;;;3.00;1.10;;;;;;;18.09;87.35;99047.06;104966;1287;25255;-76
2022/08/23 09:42:47;;;;;;;1.70;0.90;;;;;;;18.20;87.29;99037.13;105574;1286;27368;-77
2022/08/23 09:45:32;;;;;;;2.00;1.00;;;;;;;18.30;86.95;99035.16;104852;1285;22586;-76
2022/08/23 09:47:59;;;;;;;2.60;0.90;;;;;;;18.37;86.57;99039.59;105268;1285;25518;-79
2022/08/23 09:50:44;;;;;;;4.10;1.10;;;;;;;18.41;87.07;99037.92;104840;1285;25251;-76
2022/08/23 09:53:14;;;;;;;3.10;0.90;;;;;;;18.54;87.11;99037.48;105044;1285;24239;-77
2022/08/23 09:55:50;;;;;;;2.00;0.70;;;;;;;18.66;86.38;99041.17;104789;1286;25391;-77
2022/08/23 09:58:37;;;;;;;2.80;1.10;;;;;;;18.68;86.17;99037.68;105198;1284;26503;-82
2022/08/23 10:01:17;;;;;;;1.30;0.70;;;;;;;18.75;86.33;99037.80;106249;1279;25296;-77
2022/08/23 10:04:09;;;;;;;1.70;0.80;;;;;;;18.84;86.36;99034.13;106092;1277;22846;-77
2022/08/23 10:06:37;;;;;;;1.50;0.70;;;;;;;18.97;86.34;99032.28;105943;1276;22579;-77
2022/08/23 10:09:06;;;;;;;1.10;0.60;;;;;;;19.09;86.34;99031.94;105729;1277;22538;-79
2022/08/23 10:11:40;;;;;;;3.30;0.80;;;;;;;19.24;86.49;99032.89;105922;1279;22642;-76
2022/08/23 10:14:09;;;;;;;1.80;0.60;;;;;;;19.42;86.39;99033.11;105935;1276;22659;-76
2022/08/23 10:16:46;;;;;;;1.20;0.60;;;;;;;19.42;85.67;99033.26;105980;1280;22573;-80
2022/08/23 10:19:34;;;;;;;0.90;0.40;;;;;;;19.43;85.99;99037.98;106058;1276;25847;-76
2022/08/23 10:22:07;;;;;;;1.10;0.50;;;;;;;19.46;85.82;99037.75;105786;1279;24021;-75
2022/08/23 10:24:46;;;;;;;1.70;0.50;;;;;;;19.58;85.87;99029.45;105732;1276;25460;-78
2022/08/23 10:30:10;;;;;;;1.70;0.50;;;;;;;20.02;85.53;99027.75;105930;1276;24367;-75
2022/08/23 10:32:54;;;;;;;0.90;0.40;;;;;;;20.18;85.82;99029.90;106096;1277;25701;-77
2022/08/23 10:35:28;;;;;;;1.20;0.50;;;;;;;20.31;85.72;99029.80;106219;1279;22553;-77
2022/08/23 10:38:16;;;;;;;1.60;0.30;;;;;;;20.30;85.00;99036.35;105808;1277;22558;-79
2022/08/23 10:41:00;;;;;;;2.00;0.40;;;;;;;20.21;84.95;99038.98;105546;1280;22577;-79
2022/08/23 10:43:36;;;;;;;2.30;0.40;;;;;;;20.10;85.44;99041.97;106504;1276;24214;-83
2022/08/23 10:46:08;;;;;;;0.60;0.30;;;;;;;20.17;86.05;99041.77;105625;1277;22580;-76
2022/08/23 10:48:46;;;;;;;1.30;0.50;;;;;;;20.25;85.84;99043.24;105630;1280;22725;-78
2022/08/23 10:51:20;;;;;;;0.80;0.40;;;;;;;20.36;86.37;99043.42;105514;1279;23941;-81
2022/08/23 10:53:55;;;;;;;3.50;0.40;;;;;;;20.42;85.59;99045.27;105598;1279;25250;-76
2022/08/23 10:56:22;;;;;;;3.20;0.60;;;;;;;20.44;85.70;99042.60;105535;1277;22548;-82
2022/08/23 10:59:24;;;;;;;0.70;0.30;;;;;;;20.46;85.58;99046.00;105783;1279;22544;-76
2022/08/23 11:02:23;;;;;;;2.50;0.50;;;;;;;20.55;85.93;99048.97;106070;1279;22775;-77
2022/08/23 11:05:21;;;;;;;0.80;0.30;;;;;;;20.87;86.18;99046.02;106381;1277;23156;-77
2022/08/23 11:08:10;;;;;;;2.20;0.60;;;;;;;21.14;85.45;99044.86;106047;1279;25481;-78
2022/08/23 11:10:38;;;;;;;1.80;0.60;;;;;;;21.26;84.85;99045.92;105669;1279;22894;-78
2022/08/23 11:13:17;;;;;;;1.80;0.60;;;;;;;21.22;84.35;99046.75;105966;1279;24937;-80
2022/08/23 11:16:14;;;;;;;1.60;0.80;;;;;;;21.16;84.45;99052.73;105746;1278;22563;-76
2022/08/23 11:18:48;;;;;;;5.40;0.60;;;;;;;20.98;84.92;99055.91;105823;1280;25282;-82
2022/08/23 11:21:23;;;;;;;2.10;0.60;;;;;;;20.84;85.20;99060.41;105870;1279;22599;-77
2022/08/23 11:24:05;;;;;;;1.40;0.50;;;;;;;20.76;85.78;99060.08;105796;1276;22575;-78
2022/08/23 11:26:46;;;;;;;1.00;0.40;;;;;;;20.62;85.21;99063.52;105696;1279;22727;-78
2022/08/23 11:29:21;;;;;;;2.30;0.40;;;;;;;20.44;85.35;99063.15;105974;1278;24326;-77
2022/08/23 11:32:00;;;;;;;2.80;0.40;;;;;;;20.33;85.54;99068.76;105550;1278;22640;-80
2022/08/23 11:34:53;;;;;;;1.60;0.30;;;;;;;20.24;85.82;99069.45;105779;1279;24280;-77
2022/08/23 11:37:25;;;;;;;2.50;0.40;;;;;;;20.07;85.54;99071.44;105771;1278;22606;-81
2022/08/23 11:39:58;;;;;;;4.60;0.50;;;;;;;19.91;85.87;99075.10;105791;1280;22569;-84
2022/08/23 11:42:31;;;;;;;2.10;0.60;;;;;;;19.79;85.74;99079.09;105916;1279;23126;-77
2022/08/23 11:44:59;;;;;;;3.90;0.60;;;;;;;19.61;85.71;99084.56;105680;1279;22634;-77
2022/08/23 11:47:43;;;;;;;1.00;0.50;;;;;;;19.47;85.85;99081.64;105879;1279;24370;-82
2022/08/23 11:50:31;;;;;;;2.90;0.70;;;;;;;19.33;85.67;99082.17;105811;1277;23923;-78
2022/08/23 11:53:07;;;;;;;6.50;1.00;;;;;;;19.29;86.09;99081.50;105562;1279;24017;-77
2022/08/23 11:56:05;;;;;;;5.90;1.00;;;;;;;19.35;86.34;99079.77;105605;1280;22572;-78
2022/08/23 11:58:52;;;;;;;2.70;0.60;;;;;;;19.44;86.22;99080.03;105729;1279;22654;-83
2022/08/23 12:01:32;;;;;;;2.70;0.40;;;;;;;19.48;86.13;99080.48;105694;1281;26876;-82
2022/08/23 12:04:12;;;;;;;3.20;0.60;;;;;;;19.49;86.08;99078.09;105615;1279;22561;-82
2022/08/23 12:06:51;;;;;;;4.40;0.90;;;;;;;19.56;86.33;99082.33;105708;1279;25212;-77
2022/08/23 12:09:21;;;;;;;2.20;0.90;;;;;;;19.59;86.03;99082.04;105745;1279;24251;-81
2022/08/23 12:11:55;;;;;;;4.00;1.40;;;;;;;19.64;86.28;99080.27;105970;1280;22554;-81